Time;durP1;ratioP1;P1;durP2;ratioP2;P2;SDS_P1;SDS_P2;PMS_P1;PMS_P2;Temp;Humidity;BMP_temperature;BMP_pressure;BME280_temperature;BME280_humidity;BME280_pressure;Samples;Min_cycle;Max_cycle;Signal;HPM_P1;HPM_P2
2023/06/29 07:23:03;;;;;;;19.15;17.25;;;;;;;-145.79;60.34;76586.72;5301265;27;20726;-72
2023/06/29 07:25:34;;;;;;;19.33;17.08;;;;;;;-145.79;60.57;76576.13;5300589;28;20039;-73
2023/06/29 07:28:06;;;;;;;20.10;18.10;;;;;;;-145.79;58.17;76571.91;5301081;28;20016;-72
2023/06/29 07:30:37;;;;;;;19.88;17.88;;;;;;;-145.79;58.48;76571.91;5300832;28;20069;-71
2023/06/29 07:33:09;;;;;;;19.77;17.73;;;;;;;-145.79;56.64;76561.28;5299895;28;20107;-71
2023/06/29 07:35:40;;;;;;;19.67;17.60;;;;;;;-145.79;56.65;76557.06;5293065;28;20023;-71
2023/06/29 07:38:12;;;;;;;19.35;17.35;;;;;;;-145.79;56.68;76559.19;5300920;28;20024;-71
2023/06/29 07:40:43;;;;;;;20.17;17.60;;;;;;;-145.79;56.49;76550.69;5300102;28;20490;-71
2023/06/29 07:43:15;;;;;;;21.75;18.50;;;;;;;-145.79;56.16;76548.59;5300496;28;20028;-74
2023/06/29 07:45:46;;;;;;;21.20;17.85;;;;;;;-145.79;55.29;76535.88;5301102;28;20024;-74
2023/06/29 07:48:17;;;;;;;19.00;17.00;;;;;;;-145.79;55.17;76529.50;5300023;28;20028;-74
2023/06/29 07:50:49;;;;;;;20.80;18.60;;;;;;;-145.79;55.19;76525.28;5299866;28;20044;-72
2023/06/29 07:53:20;;;;;;;20.70;18.50;;;;;;;-145.79;55.48;76512.56;5299721;28;20086;-73
2023/06/29 07:55:51;;;;;;;20.38;17.90;;;;;;;-145.79;55.17;76501.97;5300251;28;20024;-71
2023/06/29 07:58:23;;;;;;;18.40;16.55;;;;;;;-145.79;55.07;76508.31;5300238;28;20059;-72
2023/06/29 08:00:54;;;;;;;20.13;17.73;;;;;;;-145.79;55.73;76499.84;5299605;28;20111;-71
2023/06/29 08:03:26;;;;;;;22.20;19.17;;;;;;;-145.79;55.77;76499.84;5300163;28;20103;-69
2023/06/29 08:05:57;;;;;;;20.30;17.88;;;;;;;-145.79;55.23;76504.09;5300441;28;20100;-71
2023/06/29 08:08:29;;;;;;;19.88;17.77;;;;;;;-145.79;55.01;76487.13;5298577;28;20024;-72
2023/06/29 08:11:01;;;;;;;20.45;18.35;;;;;;;-145.79;55.21;76480.78;5282460;28;20031;-71
2023/06/29 08:13:33;;;;;;;23.73;21.35;;;;;;;-145.79;54.59;76474.41;5300071;28;20024;-72
2023/06/29 08:16:05;;;;;;;20.50;18.48;;;;;;;-145.79;54.40;76482.88;5299540;28;20043;-72
2023/06/29 08:18:36;;;;;;;21.13;18.90;;;;;;;-145.79;54.52;76491.38;5300177;28;20064;-72
2023/06/29 08:21:10;;;;;;;20.88;18.67;;;;;;;-145.79;54.34;76482.88;5299167;28;20044;-71
2023/06/29 08:23:41;;;;;;;20.88;18.15;;;;;;;-145.79;54.68;76487.13;5300169;28;20028;-72
2023/06/29 08:26:12;;;;;;;21.55;19.30;;;;;;;-145.79;54.35;76480.78;5298915;28;20391;-71
2023/06/29 08:28:44;;;;;;;22.00;19.60;;;;;;;-145.79;54.18;76470.19;5290689;28;20036;-69
2023/06/29 08:31:15;;;;;;;22.30;19.98;;;;;;;-145.79;54.06;76472.28;5297900;28;20028;-70
2023/06/29 08:33:48;;;;;;;20.60;18.40;;;;;;;-145.79;53.37;76457.47;5288986;28;20099;-70
2023/06/29 08:36:20;;;;;;;23.20;19.55;;;;;;;-145.79;53.69;76468.06;5278680;28;20033;-70
2023/06/29 08:38:51;;;;;;;20.60;18.45;;;;;;;-145.79;53.37;76455.34;5279762;28;20472;-70
2023/06/29 08:41:23;;;;;;;21.33;18.63;;;;;;;-145.79;52.83;76465.94;5285473;28;20495;-70
2023/06/29 08:43:54;;;;;;;22.73;19.70;;;;;;;-145.79;52.86;76453.22;5266371;28;20025;-70
2023/06/29 08:46:27;;;;;;;21.50;19.25;;;;;;;-145.79;52.89;76436.28;5264646;28;20027;-71
2023/06/29 08:49:00;;;;;;;21.63;19.52;;;;;;;-145.79;52.84;76423.56;5264627;28;20028;-71
2023/06/29 08:51:34;;;;;;;23.25;19.40;;;;;;;-145.79;53.25;76417.19;5264686;28;20062;-71
2023/06/29 08:54:07;;;;;;;22.33;19.65;;;;;;;-145.79;53.42;76415.06;5264349;28;20390;-69
2023/06/29 08:56:38;;;;;;;23.20;20.70;;;;;;;-145.79;52.03;76391.78;5264135;28;20025;-69
2023/06/29 08:59:10;;;;;;;23.27;20.98;;;;;;;-145.79;52.64;76389.66;5267409;28;20547;-68
2023/06/29 09:01:42;;;;;;;23.85;21.27;;;;;;;-145.79;51.96;76381.16;5285127;28;20035;-68
2023/06/29 09:04:13;;;;;;;22.70;20.33;;;;;;;-145.79;51.57;76368.47;5284274;28;20036;-68
2023/06/29 09:06:45;;;;;;;23.08;20.77;;;;;;;-145.79;52.01;76383.28;5284812;28;20017;-68
2023/06/29 09:09:17;;;;;;;23.20;19.58;;;;;;;-145.79;51.48;76370.56;5284620;28;20021;-68
2023/06/29 09:11:49;;;;;;;23.52;19.70;;;;;;;-145.79;51.15;76381.16;5279946;28;20025;-69
2023/06/29 09:14:21;;;;;;;22.42;20.13;;;;;;;-145.79;50.89;76385.41;5284936;28;20391;-69
2023/06/29 09:16:57;;;;;;;21.20;19.05;;;;;;;-145.79;51.10;76389.66;5275060;28;20024;-69
2023/06/29 09:19:32;;;;;;;22.00;19.45;;;;;;;-145.79;51.38;76383.28;5263099;28;20025;-69
2023/06/29 09:22:03;;;;;;;21.23;18.58;;;;;;;-145.79;51.05;76398.13;5267182;28;20056;-69
2023/06/29 09:24:35;;;;;;;21.13;19.02;;;;;;;-145.79;51.49;76393.88;5262764;28;20536;-69
2023/06/29 09:27:09;;;;;;;21.27;19.00;;;;;;;-145.79;51.42;76383.28;5263737;28;20025;-68
2023/06/29 09:29:50;;;;;;;21.13;19.02;;;;;;;-145.79;51.31;76379.06;5263696;28;20055;-68
2023/06/29 09:32:21;;;;;;;21.52;19.23;;;;;;;-145.79;52.34;76404.47;5262951;28;20464;-69
2023/06/29 09:34:52;;;;;;;22.75;20.35;;;;;;;-145.79;53.26;76400.25;5275783;28;20021;-68
2023/06/29 09:37:25;;;;;;;21.50;19.50;;;;;;;-145.79;52.52;76389.66;5263736;28;20035;-69
2023/06/29 09:39:59;;;;;;;22.30;19.90;;;;;;;-145.79;52.71;76387.53;5280345;28;20029;-69
2023/06/29 09:42:36;;;;;;;20.85;18.73;;;;;;;-145.79;51.60;76372.69;5268353;28;20102;-70
2023/06/29 09:45:12;;;;;;;22.30;20.08;;;;;;;-145.79;51.28;76381.16;5262482;28;20021;-70
2023/06/29 09:47:51;;;;;;;22.63;20.20;;;;;;;-145.79;50.67;76370.56;5262701;28;20064;-70
2023/06/29 09:50:23;;;;;;;22.73;20.33;;;;;;;-145.79;50.62;76370.56;5267430;28;20403;-70
2023/06/29 09:52:55;;;;;;;22.83;20.42;;;;;;;-145.79;50.65;76368.47;5283181;28;20029;-69
2023/06/29 09:55:30;;;;;;;22.88;20.52;;;;;;;-145.79;51.11;76372.69;5283331;28;20475;-70
2023/06/29 09:58:01;;;;;;;25.58;20.90;;;;;;;-145.79;51.08;76385.41;5283312;28;20066;-69
2023/06/29 10:00:33;;;;;;;24.00;21.50;;;;;;;-145.79;52.21;76391.78;5281190;28;20032;-70
2023/06/29 10:03:04;;;;;;;23.17;19.85;;;;;;;-145.79;51.30;76364.22;5281771;28;20039;-70
2023/06/29 10:05:37;;;;;;;23.80;20.67;;;;;;;-145.79;50.83;76364.22;5266058;28;20044;-69
2023/06/29 10:08:14;;;;;;;22.08;19.90;;;;;;;-145.79;50.94;76355.75;5262717;28;20426;-69
2023/06/29 10:10:47;;;;;;;22.70;20.30;;;;;;;-145.79;50.62;76357.84;5262840;28;20096;-69
2023/06/29 10:13:21;;;;;;;24.27;21.73;;;;;;;-145.79;51.08;76366.34;5262716;28;20333;-69
2023/06/29 10:15:53;;;;;;;23.73;21.35;;;;;;;-145.79;50.98;76364.22;5262076;28;20509;-70
2023/06/29 10:18:32;;;;;;;23.65;21.15;;;;;;;-145.79;50.64;76368.47;5262787;28;20024;-68
2023/06/29 10:21:03;;;;;;;25.05;22.35;;;;;;;-145.79;50.92;76372.69;5262425;28;20455;-70
2023/06/29 10:23:36;;;;;;;25.20;22.63;;;;;;;-145.79;50.78;76357.84;5262036;28;20040;-68
2023/06/29 10:26:09;;;;;;;25.65;22.25;;;;;;;-145.79;50.89;76347.25;5279399;28;20055;-68
2023/06/29 10:28:41;;;;;;;23.45;21.05;;;;;;;-145.79;51.08;76364.22;5281452;28;20103;-69
2023/06/29 10:31:18;;;;;;;22.48;20.15;;;;;;;-145.79;51.07;76362.09;5282835;28;20445;-69
2023/06/29 10:33:52;;;;;;;23.30;20.92;;;;;;;-145.79;51.88;76364.22;5262480;28;20029;-69
2023/06/29 10:36:23;;;;;;;24.15;21.65;;;;;;;-145.79;51.84;76364.22;5261462;28;20100;-68
2023/06/29 10:38:55;;;;;;;24.17;21.67;;;;;;;-145.79;51.82;76359.97;5262324;28;20045;-68
2023/06/29 10:41:27;;;;;;;23.88;20.58;;;;;;;-145.79;51.91;76357.84;5262657;28;20051;-68
2023/06/29 10:44:01;;;;;;;23.55;21.20;;;;;;;-145.79;52.27;76362.09;5261518;28;20047;-69
2023/06/29 10:46:48;;;;;;;26.52;23.55;;;;;;;-145.79;52.15;76359.97;5262150;28;20155;-68
2023/06/29 10:49:26;;;;;;;27.17;21.13;;;;;;;-145.79;51.74;76347.25;5261355;28;20375;-69
2023/06/29 10:52:03;;;;;;;26.42;22.52;;;;;;;-145.79;52.90;76364.22;5261547;28;20032;-68
2023/06/29 10:54:34;;;;;;;23.30;20.83;;;;;;;-145.79;53.00;76364.22;5273652;28;20032;-67
2023/06/29 10:57:07;;;;;;;26.58;23.50;;;;;;;-145.79;52.77;76349.38;5271012;28;20064;-68
2023/06/29 10:59:39;;;;;;;26.33;23.05;;;;;;;-145.79;52.04;76351.50;5265760;28;20029;-69
2023/06/29 11:02:11;;;;;;;24.83;22.27;;;;;;;-145.79;52.15;76355.75;5271066;28;20027;-69
2023/06/29 11:04:43;;;;;;;23.73;21.27;;;;;;;-145.79;51.63;76340.91;5282320;28;20017;-69
2023/06/29 11:07:15;;;;;;;25.60;22.35;;;;;;;-145.79;51.63;76364.22;5264936;28;20024;-69
2023/06/29 11:09:46;;;;;;;24.58;22.10;;;;;;;-145.79;51.35;76340.91;5264720;28;20033;-69
2023/06/29 11:12:18;;;;;;;25.70;22.60;;;;;;;-145.79;51.63;76353.63;5282206;28;20357;-69
2023/06/29 11:14:53;;;;;;;24.35;21.75;;;;;;;-145.79;52.07;76368.47;5275229;28;20032;-69
2023/06/29 11:17:26;;;;;;;25.50;22.90;;;;;;;-145.79;52.00;76364.22;5266936;28;20025;-69
2023/06/29 11:19:57;;;;;;;127.55;115.45;;;;;;;-145.79;50.95;76351.50;5260607;28;20036;-69
2023/06/29 11:22:29;;;;;;;24.92;22.13;;;;;;;-145.79;50.43;76338.78;5266808;28;20651;-69
2023/06/29 11:25:00;;;;;;;23.52;21.08;;;;;;;-145.79;49.40;76345.16;5281888;28;20492;-69
2023/06/29 11:27:31;;;;;;;26.63;23.83;;;;;;;-145.79;49.30;76343.03;5281795;28;20024;-69
2023/06/29 11:30:06;;;;;;;29.58;26.42;;;;;;;-145.79;49.31;76340.91;5281733;28;20039;-69
2023/06/29 11:32:38;;;;;;;29.30;26.20;;;;;;;-145.79;49.05;76334.56;5273914;28;20017;-69
2023/06/29 11:35:10;;;;;;;24.17;21.58;;;;;;;-145.79;48.90;76326.06;5261634;28;20028;-69
2023/06/29 11:37:41;;;;;;;25.77;22.98;;;;;;;-145.79;49.54;76338.78;5266621;28;20107;-69
2023/06/29 11:40:23;;;;;;;25.27;22.63;;;;;;;-145.79;49.34;76311.25;5281355;28;20104;-69
2023/06/29 11:42:55;;;;;;;24.52;22.02;;;;;;;-145.79;49.57;76307.00;5270322;28;20024;-69
2023/06/29 11:45:26;;;;;;;30.65;27.50;;;;;;;-145.79;50.42;76317.59;5264630;28;20025;-69
2023/06/29 11:47:57;;;;;;;26.25;23.55;;;;;;;-145.79;50.28;76298.53;5269101;28;20128;-69
2023/06/29 11:50:30;;;;;;;30.17;25.73;;;;;;;-145.79;50.77;76296.41;5261245;28;20541;-69
2023/06/29 11:53:02;;;;;;;30.42;27.38;;;;;;;-145.79;50.77;76266.75;5260524;28;20131;-69
2023/06/29 11:55:33;;;;;;;31.20;25.67;;;;;;;-145.79;51.05;76268.84;5261404;28;20380;-69
2023/06/29 11:58:05;;;;;;;27.83;24.92;;;;;;;-145.79;50.64;76254.03;5260846;28;20013;-69
2023/06/29 12:00:36;;;;;;;31.10;28.10;;;;;;;-145.79;50.06;76232.84;5260291;28;20478;-69
2023/06/29 12:03:09;;;;;;;27.45;24.70;;;;;;;-145.79;49.64;76239.19;5268261;28;20062;-69
2023/06/29 12:05:41;;;;;;;28.42;25.50;;;;;;;-145.79;49.15;76232.84;5264799;28;20024;-69
2023/06/29 12:08:14;;;;;;;31.02;26.60;;;;;;;-145.79;48.59;76224.38;5273135;28;20029;-69
2023/06/29 12:10:46;;;;;;;27.75;24.83;;;;;;;-145.79;48.33;76203.16;5264796;28;20036;-69
2023/06/29 12:13:17;;;;;;;26.63;24.02;;;;;;;-145.79;48.24;76186.22;5264496;28;20400;-70
2023/06/29 12:15:49;;;;;;;29.63;26.70;;;;;;;-145.79;48.08;76198.94;5265202;28;20183;-69
2023/06/29 12:18:23;;;;;;;30.02;26.20;;;;;;;-145.79;47.55;76203.16;5264580;28;20096;-69
2023/06/29 12:21:00;;;;;;;29.83;26.77;;;;;;;-145.79;47.50;76188.34;5263833;28;20121;-70
2023/06/29 12:23:31;;;;;;;29.10;26.17;;;;;;;-145.79;47.26;76181.97;5265534;28;20104;-71
2023/06/29 12:26:03;;;;;;;30.88;27.20;;;;;;;-145.79;46.96;76175.63;5265000;28;20533;-70
2023/06/29 12:28:34;;;;;;;30.10;27.08;;;;;;;-145.79;47.11;76165.03;5263973;28;20017;-69
2023/06/29 12:31:06;;;;;;;32.50;29.00;;;;;;;-145.79;47.21;76152.31;5264860;28;20130;-68
2023/06/29 12:33:37;;;;;;;30.52;27.35;;;;;;;-145.79;47.38;76148.06;5264814;28;20033;-68
2023/06/29 12:36:09;;;;;;;32.20;28.38;;;;;;;-145.79;47.48;76160.78;5264802;28;20033;-68
2023/06/29 12:38:40;;;;;;;33.55;29.40;;;;;;;-145.79;47.75;76152.31;5264856;28;20032;-68
2023/06/29 12:41:11;;;;;;;32.45;29.05;;;;;;;-145.79;47.05;76150.19;5280204;28;20056;-67
2023/06/29 12:43:43;;;;;;;32.85;29.33;;;;;;;-145.79;46.80;76150.19;5284898;28;20024;-67
2023/06/29 12:46:14;;;;;;;32.60;29.20;;;;;;;-145.79;47.29;76145.97;5285284;28;20048;-69
2023/06/29 12:48:46;;;;;;;31.02;27.88;;;;;;;-145.79;46.78;76139.59;5282472;28;20032;-68
2023/06/29 12:51:18;;;;;;;111.60;100.90;;;;;;;-145.79;46.76;76133.25;5273463;28;20155;-67
2023/06/29 12:53:49;;;;;;;33.38;29.98;;;;;;;-145.79;46.55;76122.66;5285230;28;20115;-66
2023/06/29 12:56:20;;;;;;;32.67;29.20;;;;;;;-145.79;46.25;76118.41;5270093;28;20016;-67
2023/06/29 12:58:52;;;;;;;34.17;30.48;;;;;;;-145.79;46.11;76118.41;5281575;28;20032;-67
2023/06/29 13:01:24;;;;;;;33.33;29.80;;;;;;;-145.79;45.99;76118.41;5284941;28;20052;-67
2023/06/29 13:03:55;;;;;;;35.20;31.58;;;;;;;-145.79;45.93;76120.53;5284256;28;20528;-68
2023/06/29 13:06:26;;;;;;;37.97;33.80;;;;;;;-145.79;46.22;76122.66;5284803;28;20021;-68
2023/06/29 13:08:58;;;;;;;34.70;31.15;;;;;;;-145.79;46.50;76131.13;5282686;28;20021;-68
2023/06/29 13:11:34;;;;;;;37.97;34.17;;;;;;;-145.79;46.90;76131.13;5262617;28;20161;-67
2023/06/29 13:14:06;;;;;;;35.90;32.13;;;;;;;-145.79;46.80;76124.78;5267738;28;20100;-68
2023/06/29 13:16:37;;;;;;;34.83;31.20;;;;;;;-145.79;46.68;76129.00;5292222;28;20100;-66
2023/06/29 13:19:08;;;;;;;38.30;34.03;;;;;;;-145.79;46.89;76143.84;5263399;28;20070;-67
2023/06/29 13:21:39;;;;;;;33.88;30.42;;;;;;;-145.79;46.83;76152.31;5261007;28;20497;-67
2023/06/29 13:24:11;;;;;;;33.90;30.35;;;;;;;-145.79;47.25;76162.91;5260920;28;20021;-66
2023/06/29 13:26:42;;;;;;;26.98;24.17;;;;;;;-145.79;49.46;76215.88;5265801;28;20016;-65
2023/06/29 13:29:14;;;;;;;21.92;19.63;;;;;;;-145.79;50.61;76294.28;5280880;28;20021;-66
2023/06/29 13:31:45;;;;;;;25.65;22.77;;;;;;;-145.79;49.98;76283.69;5280103;28;20162;-66
2023/06/29 13:34:17;;;;;;;22.50;20.20;;;;;;;-145.79;49.80;76275.22;5281335;28;20036;-66
2023/06/29 13:36:49;;;;;;;21.75;19.58;;;;;;;-145.79;49.65;76287.94;5281753;28;20025;-66
2023/06/29 13:39:21;;;;;;;46.63;41.92;;;;;;;-145.79;49.82;76338.78;5281497;28;20024;-66
2023/06/29 13:41:52;;;;;;;19.05;17.15;;;;;;;-145.79;50.29;76355.75;5281689;28;20115;-66
2023/06/29 13:44:23;;;;;;;18.73;16.17;;;;;;;-145.79;51.55;76366.34;5279264;28;20027;-67
2023/06/29 13:46:55;;;;;;;20.70;17.17;;;;;;;-145.79;52.99;76393.88;5271545;28;20029;-66
2023/06/29 13:49:26;;;;;;;19.50;17.45;;;;;;;-145.79;53.30;76385.41;5269848;28;20040;-66
2023/06/29 13:51:57;;;;;;;17.67;15.88;;;;;;;-145.79;53.63;76374.81;5280858;28;20468;-66
2023/06/29 13:54:29;;;;;;;18.58;16.63;;;;;;;-145.79;54.57;76379.06;5284219;28;20024;-67
2023/06/29 13:57:00;;;;;;;17.45;15.63;;;;;;;-145.79;54.57;76364.22;5283698;28;20066;-66
2023/06/29 13:59:32;;;;;;;19.42;17.42;;;;;;;-145.79;55.53;76396.00;5283217;28;20024;-67
2023/06/29 14:02:04;;;;;;;20.30;16.98;;;;;;;-145.79;56.76;76417.19;5268702;28;20035;-66
2023/06/29 14:04:35;;;;;;;17.05;15.25;;;;;;;-145.79;56.87;76402.38;5262815;28;20025;-66
2023/06/29 14:07:07;;;;;;;24.00;18.58;;;;;;;-145.79;58.48;76440.50;5262565;28;20133;-66
2023/06/29 14:09:38;;;;;;;24.30;19.50;;;;;;;-145.79;58.81;76423.56;5262740;28;20025;-66
2023/06/29 14:12:10;;;;;;;18.00;16.20;;;;;;;-145.79;59.08;76408.72;5274450;28;20029;-67
2023/06/29 14:14:44;;;;;;;19.02;17.17;;;;;;;-145.79;60.96;76451.09;5262018;28;20095;-67
2023/06/29 14:17:19;;;;;;;18.80;16.80;;;;;;;-145.79;60.04;76415.06;5262328;28;20492;-68
2023/06/29 14:19:51;;;;;;;25.88;21.95;;;;;;;-145.79;58.36;76410.84;5261554;28;20097;-67
2023/06/29 14:22:23;;;;;;;23.17;20.70;;;;;;;-145.79;57.72;76402.38;5262281;28;20052;-68
2023/06/29 14:24:54;;;;;;;20.15;18.00;;;;;;;-145.79;58.01;76406.59;5262507;28;20025;-68
2023/06/29 14:27:25;;;;;;;23.52;18.85;;;;;;;-145.79;59.47;76457.47;5279501;28;20134;-68
2023/06/29 14:29:57;;;;;;;21.13;18.90;;;;;;;-145.79;59.44;76419.31;5272743;28;20032;-68
2023/06/29 14:32:28;;;;;;;20.67;18.35;;;;;;;-145.79;60.17;76457.47;5261753;28;20102;-68
2023/06/29 14:34:59;;;;;;;20.92;18.73;;;;;;;-145.79;60.77;76461.69;5261570;28;20048;-69
2023/06/29 14:37:31;;;;;;;40.30;36.10;;;;;;;-145.79;61.07;76457.47;5261883;28;20108;-69
2023/06/29 14:40:03;;;;;;;21.75;19.58;;;;;;;-145.79;62.71;76508.31;5272424;28;20027;-69
2023/06/29 14:42:36;;;;;;;19.58;17.20;;;;;;;-145.79;60.68;76423.56;5278701;28;20087;-69
2023/06/29 14:45:07;;;;;;;20.40;18.33;;;;;;;-145.79;62.00;76427.78;5282809;28;20345;-69
2023/06/29 14:47:39;;;;;;;25.17;22.45;;;;;;;-145.79;61.72;76432.03;5282643;28;20031;-69
2023/06/29 14:50:10;;;;;;;23.25;20.85;;;;;;;-145.79;62.98;76470.19;5278496;28;20036;-69
2023/06/29 14:52:41;;;;;;;19.15;17.08;;;;;;;-145.79;61.85;76419.31;5282722;28;20040;-69
2023/06/29 14:55:13;;;;;;;19.95;17.85;;;;;;;-145.79;61.70;76408.72;5282219;28;20024;-69
2023/06/29 14:57:44;;;;;;;21.23;19.02;;;;;;;-145.79;61.23;76417.19;5265857;28;20419;-69
2023/06/29 15:00:16;;;;;;;21.52;18.85;;;;;;;-145.79;61.06;76376.94;5261725;28;20040;-69
2023/06/29 15:02:48;;;;;;;21.70;18.65;;;;;;;-145.79;59.84;76338.78;5261221;28;20488;-69
2023/06/29 15:05:19;;;;;;;21.17;17.40;;;;;;;-145.79;60.54;76345.16;5243289;28;20035;-68
2023/06/29 15:07:50;;;;;;;18.45;16.52;;;;;;;-145.79;59.33;76315.47;5261666;28;20460;-69
2023/06/29 15:10:22;;;;;;;20.40;17.75;;;;;;;-145.79;57.82;76334.56;5260889;28;20033;-68
2023/06/29 15:12:53;;;;;;;18.15;16.23;;;;;;;-145.79;57.15;76323.97;5262062;28;20350;-68
2023/06/29 15:15:24;;;;;;;19.33;16.08;;;;;;;-145.79;56.94;76336.66;5261616;28;20037;-69
2023/06/29 15:17:56;;;;;;;18.15;16.35;;;;;;;-145.79;57.17;76309.13;5279568;28;20028;-66
2023/06/29 15:20:27;;;;;;;24.40;21.90;;;;;;;-145.79;57.27;76317.59;5282615;28;20036;-68
2023/06/29 15:22:58;;;;;;;20.48;18.40;;;;;;;-145.79;57.55;76338.78;5281696;28;20114;-69
2023/06/29 15:25:30;;;;;;;20.42;17.45;;;;;;;-145.79;57.40;76304.88;5282248;28;20047;-68
2023/06/29 15:28:02;;;;;;;19.05;17.02;;;;;;;-145.79;56.69;76277.34;5282225;28;20024;-69
2023/06/29 15:30:35;;;;;;;21.52;19.15;;;;;;;-145.79;56.84;76323.97;5276134;28;20028;-68
2023/06/29 15:33:06;;;;;;;18.58;16.23;;;;;;;-145.79;56.20;76279.47;5282395;28;20452;-68
2023/06/29 15:35:38;;;;;;;18.50;16.60;;;;;;;-145.79;55.80;76273.09;5282501;28;20031;-69
2023/06/29 15:38:09;;;;;;;18.23;16.33;;;;;;;-145.79;55.30;76243.44;5281353;28;20020;-67
2023/06/29 15:40:41;;;;;;;20.30;17.10;;;;;;;-145.79;55.58;76258.25;5282059;28;20434;-68
2023/06/29 15:43:12;;;;;;;20.17;18.08;;;;;;;-145.79;56.08;76287.94;5283231;28;20478;-67
2023/06/29 15:45:43;;;;;;;21.30;17.85;;;;;;;-145.79;55.50;76307.00;5283657;28;20456;-67
2023/06/29 15:48:15;;;;;;;19.80;17.95;;;;;;;-145.79;55.99;76294.28;5273662;28;20411;-67
2023/06/29 15:50:46;;;;;;;19.02;16.92;;;;;;;-145.79;56.35;76279.47;5265265;28;20087;-67
2023/06/29 15:53:17;;;;;;;20.38;18.38;;;;;;;-145.79;56.08;76292.16;5265012;28;20025;-67
2023/06/29 15:55:49;;;;;;;20.90;17.88;;;;;;;-145.79;56.63;76294.28;5265431;28;20033;-67
2023/06/29 15:58:21;;;;;;;19.45;17.45;;;;;;;-145.79;56.50;76294.28;5284919;28;20048;-68
2023/06/29 16:00:52;;;;;;;20.48;17.20;;;;;;;-145.79;56.71;76296.41;5284213;28;20037;-67
2023/06/29 16:03:23;;;;;;;20.48;18.38;;;;;;;-145.79;55.04;76285.81;5286158;28;20028;-67
2023/06/29 16:05:55;;;;;;;19.63;16.67;;;;;;;-145.79;54.32;76268.84;5267024;28;20057;-67
2023/06/29 16:08:26;;;;;;;22.10;19.45;;;;;;;-145.79;54.02;76275.22;5266374;28;20469;-66
2023/06/29 16:10:58;;;;;;;31.35;28.25;;;;;;;-145.79;53.77;76279.47;5264518;28;20032;-67
2023/06/29 16:13:29;;;;;;;21.77;19.50;;;;;;;-145.79;53.80;76270.97;5264519;28;20033;-67
2023/06/29 16:16:00;;;;;;;19.77;17.85;;;;;;;-145.79;54.11;76266.75;5264968;28;20044;-67
2023/06/29 16:18:31;;;;;;;20.35;17.90;;;;;;;-145.79;54.14;76270.97;5265080;28;20055;-66
2023/06/29 16:21:05;;;;;;;19.02;16.95;;;;;;;-145.79;54.43;76262.50;5270126;28;20053;-66
2023/06/29 16:23:37;;;;;;;18.58;16.58;;;;;;;-145.79;54.15;76270.97;5264550;28;20021;-66
2023/06/29 16:26:08;;;;;;;18.95;16.95;;;;;;;-145.79;54.11;76266.75;5271850;28;20021;-66
2023/06/29 16:28:40;;;;;;;20.38;18.38;;;;;;;-145.79;54.38;76266.75;5284895;28;20482;-66
2023/06/29 16:31:11;;;;;;;18.73;16.77;;;;;;;-145.79;54.10;76277.34;5285530;28;20107;-66
2023/06/29 16:33:42;;;;;;;19.13;16.80;;;;;;;-145.79;54.13;76307.00;5285030;28;20032;-66
2023/06/29 16:36:14;;;;;;;19.60;17.70;;;;;;;-145.79;55.76;76338.78;5285683;28;20032;-66
2023/06/29 16:38:45;;;;;;;19.23;16.25;;;;;;;-145.79;57.24;76347.25;5270895;28;20412;-75
2023/06/29 16:41:16;;;;;;;16.95;15.25;;;;;;;-145.79;57.85;76351.50;5263385;28;20073;-74
2023/06/29 16:43:49;;;;;;;19.75;16.45;;;;;;;-145.79;60.42;76362.09;5264102;28;20124;-74
2023/06/29 16:46:20;;;;;;;21.13;16.80;;;;;;;-145.79;62.99;76366.34;5264440;28;20040;-73
2023/06/29 16:48:56;;;;;;;19.63;17.20;;;;;;;-145.79;62.23;76364.22;5264507;28;20025;-74
2023/06/29 16:51:29;;;;;;;18.20;16.30;;;;;;;-145.79;62.02;76364.22;5264179;28;20525;-74
2023/06/29 16:54:00;;;;;;;21.00;17.27;;;;;;;-145.79;60.99;76368.47;5263785;28;20039;-74
